createdAt,value
2018-03-28T00:00:10.177Z,99591.31
2018-03-28T00:02:37.760Z,99588.81
2018-03-28T00:05:05.412Z,99578.88
2018-03-28T00:07:33.043Z,99579.33
2018-03-28T00:10:00.671Z,99585.03
2018-03-28T00:12:28.276Z,99594.00
2018-03-28T00:14:55.873Z,99593.41
2018-03-28T00:17:23.467Z,99585.12
2018-03-28T00:19:51.099Z,99584.91
2018-03-28T00:22:18.783Z,99578.07
2018-03-28T00:24:46.462Z,99576.31
2018-03-28T00:27:14.090Z,99574.69
2018-03-28T00:29:41.684Z,99573.16
2018-03-28T00:32:09.749Z,99576.27
2018-03-28T00:34:37.768Z,99579.23
2018-03-28T00:37:06.600Z,99578.70
2018-03-28T00:39:34.415Z,99584.00
2018-03-28T00:42:02.007Z,99587.51
2018-03-28T00:44:29.628Z,99592.24
2018-03-28T00:46:57.298Z,99594.70
2018-03-28T00:49:24.890Z,99590.83
2018-03-28T00:51:52.490Z,99591.25
2018-03-28T00:54:20.079Z,99594.27
2018-03-28T00:56:47.682Z,99596.91
2018-03-28T00:59:15.278Z,99585.19
2018-03-28T01:01:42.867Z,99581.27
2018-03-28T01:04:10.498Z,99566.85
2018-03-28T01:06:38.116Z,99566.30
2018-03-28T01:09:05.747Z,99571.37
2018-03-28T01:11:33.388Z,99570.06
2018-03-28T01:14:01.068Z,99565.38
2018-03-28T01:16:28.695Z,99548.55
2018-03-28T01:18:56.279Z,99542.50
2018-03-28T01:21:23.907Z,99538.38
2018-03-28T01:23:51.507Z,99539.77
2018-03-28T01:26:19.136Z,99538.39
2018-03-28T01:28:46.758Z,99550.75
2018-03-28T01:31:14.342Z,99545.22
2018-03-28T01:33:41.952Z,99555.74
2018-03-28T01:36:09.538Z,99555.08
2018-03-28T01:38:37.182Z,99561.70
2018-03-28T01:41:04.778Z,99565.23
2018-03-28T01:43:32.391Z,99556.25
2018-03-28T01:46:00.051Z,99562.91
2018-03-28T01:48:27.644Z,99555.73
2018-03-28T01:50:55.268Z,99555.33
2018-03-28T01:53:22.866Z,99556.66
2018-03-28T01:55:50.463Z,99553.14
2018-03-28T01:58:18.100Z,99555.75
2018-03-28T02:00:45.693Z,99553.57
2018-03-28T02:03:13.272Z,99557.48
2018-03-28T02:05:40.877Z,99559.08
2018-03-28T02:08:08.489Z,99560.30
2018-03-28T02:10:36.130Z,99558.17
2018-03-28T02:13:03.734Z,99555.59
2018-03-28T02:15:31.328Z,99546.44
2018-03-28T02:17:58.951Z,99550.36
2018-03-28T02:20:26.587Z,99555.15
2018-03-28T02:22:54.619Z,99554.73
2018-03-28T02:25:22.327Z,99551.76
2018-03-28T02:27:49.939Z,99559.62
2018-03-28T02:30:17.518Z,99553.58
2018-03-28T02:32:45.190Z,99548.70
2018-03-28T02:35:12.784Z,99553.56
2018-03-28T02:37:40.462Z,99545.75
2018-03-28T02:40:08.787Z,99542.82
2018-03-28T02:42:36.543Z,99548.97
2018-03-28T02:45:04.221Z,99539.38
2018-03-28T02:47:31.806Z,99538.91
2018-03-28T02:49:59.544Z,99545.20
2018-03-28T02:52:27.155Z,99550.11
2018-03-28T02:54:54.747Z,99552.69
2018-03-28T02:57:22.520Z,99547.05
2018-03-28T02:59:50.143Z,99546.36
2018-03-28T03:02:17.727Z,99548.12
2018-03-28T03:04:45.326Z,99554.13
2018-03-28T03:07:12.923Z,99553.48
2018-03-28T03:09:40.585Z,99556.27
2018-03-28T03:12:08.182Z,99557.14
2018-03-28T03:14:35.794Z,99552.33
2018-03-28T03:17:03.420Z,99548.46
2018-03-28T03:19:31.022Z,99554.52
2018-03-28T03:21:58.611Z,99548.56
2018-03-28T03:24:26.234Z,99547.36
2018-03-28T03:26:53.923Z,99547.82
2018-03-28T03:29:21.514Z,99544.09
2018-03-28T03:31:49.160Z,99541.63
2018-03-28T03:34:16.746Z,99547.98
2018-03-28T03:36:44.413Z,99539.60
2018-03-28T03:39:12.056Z,99539.60
2018-03-28T03:41:39.675Z,99547.70
2018-03-28T03:44:07.259Z,99549.78
2018-03-28T03:46:34.875Z,99550.68
2018-03-28T03:49:02.470Z,99553.74
2018-03-28T03:51:30.065Z,99547.70
2018-03-28T03:53:57.655Z,99550.23
2018-03-28T03:56:25.284Z,99556.82
2018-03-28T03:58:52.919Z,99562.03
2018-03-28T04:01:20.559Z,99561.25
2018-03-28T04:03:48.147Z,99558.08
2018-03-28T04:06:15.772Z,99558.93
2018-03-28T04:08:43.363Z,99558.48
2018-03-28T04:11:10.951Z,99563.30
2018-03-28T04:13:38.546Z,99555.93
2018-03-28T04:16:06.154Z,99557.16
2018-03-28T04:18:33.815Z,99548.03
2018-03-28T04:21:01.435Z,99548.66
2018-03-28T04:23:29.019Z,99548.05
2018-03-28T04:25:56.609Z,99557.02
2018-03-28T04:28:24.194Z,99554.06
2018-03-28T04:30:51.798Z,99557.70
2018-03-28T04:33:19.395Z,99562.92
2018-03-28T04:35:47.024Z,99564.63
2018-03-28T04:38:14.615Z,99565.56
2018-03-28T04:40:43.987Z,99571.22
2018-03-28T04:43:11.602Z,99570.56
2018-03-28T04:45:39.183Z,99570.11
2018-03-28T04:48:06.871Z,99569.75
2018-03-28T04:50:34.455Z,99568.82
2018-03-28T04:53:02.078Z,99577.00
2018-03-28T04:55:29.687Z,99575.33
2018-03-28T04:57:57.298Z,99576.03
2018-03-28T05:00:24.890Z,99577.59
2018-03-28T05:02:52.482Z,99581.81
2018-03-28T05:05:20.140Z,99581.00
2018-03-28T05:07:48.873Z,99585.27
2018-03-28T05:10:16.495Z,99584.99
2018-03-28T05:12:44.153Z,99593.00
2018-03-28T05:15:11.783Z,99597.71
2018-03-28T05:17:39.394Z,99592.10
2018-03-28T05:20:07.076Z,99588.02
2018-03-28T05:22:34.772Z,99589.39
2018-03-28T05:25:02.307Z,99590.86
2018-03-28T05:27:29.987Z,99595.82
2018-03-28T05:29:57.598Z,99589.23
2018-03-28T05:32:25.206Z,99590.52
2018-03-28T05:34:52.809Z,99592.45
2018-03-28T05:37:20.417Z,99596.19
2018-03-28T05:39:48.038Z,99588.23
2018-03-28T05:42:15.686Z,99594.86
2018-03-28T05:44:43.363Z,99601.01
2018-03-28T05:47:11.039Z,99604.49
2018-03-28T05:49:38.626Z,99604.56
2018-03-28T05:52:06.267Z,99602.11
2018-03-28T05:54:33.899Z,99597.39
2018-03-28T05:57:01.499Z,99598.08
2018-03-28T05:59:29.166Z,99605.27
2018-03-28T06:01:56.811Z,99597.07
2018-03-28T06:04:25.062Z,99594.14
2018-03-28T06:06:52.682Z,99586.84
2018-03-28T06:09:20.298Z,99586.90
2018-03-28T06:11:47.910Z,99588.58
2018-03-28T06:14:15.505Z,99596.95
2018-03-28T06:16:43.108Z,99602.55
2018-03-28T06:19:10.791Z,99602.30
2018-03-28T06:21:38.443Z,99602.64
2018-03-28T06:24:06.040Z,99611.52
2018-03-28T06:26:33.703Z,99608.00
2018-03-28T06:29:01.283Z,99602.27
2018-03-28T06:31:28.911Z,99612.66
2018-03-28T06:33:56.641Z,99606.14
2018-03-28T06:36:24.256Z,99613.78
2018-03-28T06:38:51.898Z,99617.67
2018-03-28T06:41:20.387Z,99619.02
2018-03-28T06:43:48.141Z,99615.70
2018-03-28T06:46:15.890Z,99614.37
2018-03-28T06:48:43.523Z,99620.03
2018-03-28T06:51:11.462Z,99620.39
2018-03-28T06:53:39.297Z,99619.72
2018-03-28T06:56:06.907Z,99623.64
2018-03-28T06:58:34.507Z,99618.45
2018-03-28T07:01:02.162Z,99623.44
2018-03-28T07:03:29.760Z,99621.20
2018-03-28T07:05:57.368Z,99631.12
2018-03-28T07:08:25.006Z,99632.20
2018-03-28T07:10:52.599Z,99633.20
2018-03-28T07:13:20.192Z,99632.30
2018-03-28T07:15:47.831Z,99639.59
2018-03-28T07:18:15.421Z,99642.13
2018-03-28T07:20:43.069Z,99639.09
2018-03-28T07:23:10.687Z,99640.33
2018-03-28T07:25:38.299Z,99648.31
2018-03-28T07:28:05.903Z,99647.27
2018-03-28T07:30:33.539Z,99644.09
2018-03-28T07:33:01.188Z,99645.05
2018-03-28T07:35:28.781Z,99635.02
2018-03-28T07:37:56.478Z,99638.88
2018-03-28T07:40:24.172Z,99635.69
2018-03-28T07:42:51.769Z,99637.06
2018-03-28T07:45:19.432Z,99643.20
2018-03-28T07:47:47.026Z,99638.08
2018-03-28T07:50:14.648Z,99636.64
2018-03-28T07:52:42.243Z,99641.55
2018-03-28T07:55:09.940Z,99645.05
2018-03-28T07:57:38.016Z,99639.67
2018-03-28T08:00:05.727Z,99642.41
2018-03-28T08:02:33.344Z,99643.83
2018-03-28T08:05:00.935Z,99645.17
2018-03-28T08:07:28.809Z,99646.34
2018-03-28T08:09:57.366Z,99646.78
2018-03-28T08:12:24.958Z,99642.79
2018-03-28T08:14:52.622Z,99643.55
2018-03-28T08:17:20.219Z,99639.37
2018-03-28T08:19:47.856Z,99635.45
2018-03-28T08:22:15.450Z,99635.37
2018-03-28T08:24:43.079Z,99636.23
2018-03-28T08:27:10.671Z,99635.73
2018-03-28T08:29:38.251Z,99638.19
2018-03-28T08:32:05.858Z,99631.06
2018-03-28T08:34:33.503Z,99631.92
2018-03-28T08:37:01.099Z,99634.22
2018-03-28T08:39:28.699Z,99630.28
2018-03-28T08:41:56.380Z,99629.66
2018-03-28T08:44:23.964Z,99628.72
2018-03-28T08:46:51.572Z,99625.87
2018-03-28T08:49:19.179Z,99626.81
2018-03-28T08:51:46.762Z,99622.57
2018-03-28T08:54:14.495Z,99615.43
2018-03-28T08:56:42.084Z,99616.38
2018-03-28T08:59:09.703Z,99611.65
2018-03-28T09:01:37.387Z,99600.30
2018-03-28T09:04:04.979Z,99604.87
2018-03-28T09:06:32.673Z,99594.38
2018-03-28T09:09:00.319Z,99600.89
2018-03-28T09:11:27.922Z,99602.42
2018-03-28T09:13:55.560Z,99601.55
2018-03-28T09:16:23.179Z,99599.98
2018-03-28T09:18:50.819Z,99599.52
2018-03-28T09:21:18.415Z,99596.30
2018-03-28T09:23:46.008Z,99599.13
2018-03-28T09:26:13.606Z,99599.25
2018-03-28T09:28:41.238Z,99597.41
2018-03-28T09:31:08.863Z,99593.45
2018-03-28T09:33:36.503Z,99586.80
2018-03-28T09:36:04.175Z,99585.02
2018-03-28T09:38:31.819Z,99581.23
2018-03-28T09:40:59.467Z,99583.89
2018-03-28T09:43:27.050Z,99584.23
2018-03-28T09:45:54.671Z,99585.31
2018-03-28T09:48:22.374Z,99588.48
2018-03-28T09:50:49.987Z,99582.22
2018-03-28T09:53:17.580Z,99579.17
2018-03-28T09:55:45.207Z,99575.48
2018-03-28T09:58:13.123Z,99570.16
2018-03-28T10:00:40.761Z,99574.64
2018-03-28T10:03:13.106Z,99571.27
2018-03-28T10:05:40.697Z,99571.90
2018-03-28T10:08:08.387Z,99565.33
2018-03-28T10:10:35.974Z,99567.05
2018-03-28T10:13:03.564Z,99568.55
2018-03-28T10:15:31.175Z,99565.49
2018-03-28T10:17:58.763Z,99568.81
2018-03-28T10:20:26.394Z,99567.91
2018-03-28T10:22:53.998Z,99567.02
2018-03-28T10:25:21.623Z,99565.53
2018-03-28T10:27:49.244Z,99565.60
2018-03-28T10:30:16.848Z,99563.91
2018-03-28T10:32:44.483Z,99558.52
2018-03-28T10:35:12.115Z,99551.50
2018-03-28T10:37:39.748Z,99553.19
2018-03-28T10:40:07.359Z,99555.92
2018-03-28T10:42:35.035Z,99552.39
2018-03-28T10:45:02.635Z,99548.46
2018-03-28T10:47:30.226Z,99549.56
2018-03-28T10:49:57.843Z,99543.10
2018-03-28T10:52:25.435Z,99542.47
2018-03-28T10:54:53.066Z,99536.91
2018-03-28T10:57:20.683Z,99530.38
2018-03-28T10:59:48.314Z,99531.41
2018-03-28T11:02:15.916Z,99531.13
2018-03-28T11:04:43.511Z,99518.81
2018-03-28T11:07:11.158Z,99523.13
2018-03-28T11:09:38.743Z,99518.20
2018-03-28T11:12:06.344Z,99513.84
2018-03-28T11:14:33.972Z,99509.27
2018-03-28T11:17:01.563Z,99502.87
2018-03-28T11:19:29.191Z,99499.23
2018-03-28T11:21:56.819Z,99496.23
2018-03-28T11:24:24.413Z,99491.69
2018-03-28T11:26:52.009Z,99489.41
2018-03-28T11:29:19.609Z,99488.73
2018-03-28T11:31:47.202Z,99483.56
2018-03-28T11:34:14.791Z,99480.44
2018-03-28T11:36:42.383Z,99479.70
2018-03-28T11:39:09.999Z,99480.59
2018-03-28T11:41:37.604Z,99476.72
2018-03-28T11:44:05.197Z,99478.84
2018-03-28T11:46:32.827Z,99473.98
2018-03-28T11:49:00.454Z,99476.18
2018-03-28T11:51:28.046Z,99470.38
2018-03-28T11:53:55.669Z,99462.59
2018-03-28T11:56:23.311Z,99463.70
2018-03-28T11:58:51.070Z,99462.07
2018-03-28T12:01:18.682Z,99462.91
2018-03-28T12:03:46.304Z,99456.21
2018-03-28T12:06:13.903Z,99459.31
2018-03-28T12:08:41.515Z,99463.80
2018-03-28T12:11:09.151Z,99455.36
2018-03-28T12:13:36.751Z,99449.19
2018-03-28T12:16:04.425Z,99451.83
2018-03-28T12:18:32.015Z,99454.75
2018-03-28T12:20:59.683Z,99445.98
2018-03-28T12:23:27.330Z,99444.66
2018-03-28T12:25:55.008Z,99444.74
2018-03-28T12:28:27.698Z,99441.98
2018-03-28T12:30:55.312Z,99440.50
2018-03-28T12:33:22.902Z,99444.20
2018-03-28T12:35:50.506Z,99443.16
2018-03-28T12:38:18.712Z,99443.92
2018-03-28T12:40:46.422Z,99431.98
2018-03-28T12:43:14.024Z,99432.77
2018-03-28T12:45:41.665Z,99429.22
2018-03-28T12:48:09.298Z,99423.90
2018-03-28T12:50:39.451Z,99423.25
2018-03-28T12:53:07.042Z,99424.51
2018-03-28T12:55:34.831Z,99417.17
2018-03-28T12:58:02.389Z,99421.67
2018-03-28T13:00:30.003Z,99420.42
2018-03-28T13:02:57.600Z,99423.11
2018-03-28T13:05:25.195Z,99426.38
2018-03-28T13:07:52.809Z,99421.59
2018-03-28T13:10:20.422Z,99422.89
2018-03-28T13:12:48.063Z,99416.55
2018-03-28T13:15:15.706Z,99420.59
2018-03-28T13:17:43.367Z,99426.20
2018-03-28T13:20:10.955Z,99422.98
2018-03-28T13:22:38.550Z,99414.13
2018-03-28T13:25:06.141Z,99417.47
2018-03-28T13:27:33.778Z,99416.82
2018-03-28T13:30:01.414Z,99422.84
2018-03-28T13:32:28.998Z,99418.25
2018-03-28T13:34:56.610Z,99416.34
2018-03-28T13:37:24.212Z,99408.47
2018-03-28T13:39:51.838Z,99400.36
2018-03-28T13:42:19.453Z,99407.52
2018-03-28T13:44:47.048Z,99404.58
2018-03-28T13:47:14.656Z,99404.89
2018-03-28T13:49:42.243Z,99413.84
2018-03-28T13:52:09.850Z,99409.88
2018-03-28T13:54:37.563Z,99407.53
2018-03-28T13:57:05.160Z,99407.75
2018-03-28T13:59:32.759Z,99401.76
2018-03-28T14:02:00.387Z,99405.29
2018-03-28T14:04:27.985Z,99405.53
2018-03-28T14:06:55.570Z,99403.72
2018-03-28T14:09:23.177Z,99398.91
2018-03-28T14:11:50.849Z,99398.36
2018-03-28T14:14:18.478Z,99397.53
2018-03-28T14:16:46.128Z,99395.59
2018-03-28T14:19:13.738Z,99392.92
2018-03-28T14:21:41.391Z,99394.33
2018-03-28T14:24:08.991Z,99390.47
2018-03-28T14:26:36.615Z,99385.50
2018-03-28T14:29:04.223Z,99381.55
2018-03-28T14:31:31.927Z,99381.18
2018-03-28T14:33:59.515Z,99379.51
2018-03-28T14:36:27.121Z,99382.49
2018-03-28T14:38:54.780Z,99377.84
2018-03-28T14:41:22.390Z,99374.71
2018-03-28T14:43:49.984Z,99380.41
2018-03-28T14:46:17.595Z,99377.83
2018-03-28T14:48:45.192Z,99377.41
2018-03-28T14:51:12.831Z,99380.41
2018-03-28T14:53:40.435Z,99383.81
2018-03-28T14:56:08.083Z,99389.70
2018-03-28T14:58:35.691Z,99386.83
2018-03-28T15:01:03.288Z,99389.20
2018-03-28T15:03:30.930Z,99391.13
2018-03-28T15:05:58.518Z,99388.47
2018-03-28T15:08:26.109Z,99394.64
2018-03-28T15:10:53.714Z,99388.42
2018-03-28T15:13:21.332Z,99380.97
2018-03-28T15:15:48.930Z,99388.17
2018-03-28T15:18:16.515Z,99387.43
2018-03-28T15:20:44.159Z,99389.10
2018-03-28T15:23:11.760Z,99397.25
2018-03-28T15:25:39.368Z,99405.58
2018-03-28T15:28:07.006Z,99404.02
2018-03-28T15:30:34.606Z,99397.88
2018-03-28T15:33:02.274Z,99394.23
2018-03-28T15:35:29.878Z,99397.60
2018-03-28T15:37:57.465Z,99396.02
2018-03-28T15:40:25.091Z,99409.31
2018-03-28T15:42:52.699Z,99407.27
2018-03-28T15:45:20.291Z,99403.62
2018-03-28T15:47:47.902Z,99409.40
2018-03-28T15:50:15.527Z,99401.13
2018-03-28T15:52:43.116Z,99400.01
2018-03-28T15:55:10.730Z,99401.26
2018-03-28T15:57:38.384Z,99402.02
2018-03-28T16:00:06.083Z,99401.30
2018-03-28T16:02:33.692Z,99400.48
2018-03-28T16:05:01.315Z,99403.39
2018-03-28T16:07:28.916Z,99407.80
2018-03-28T16:09:56.551Z,99412.36
2018-03-28T16:12:24.182Z,99409.78
2018-03-28T16:14:51.775Z,99410.90
2018-03-28T16:17:19.435Z,99405.95
2018-03-28T16:19:47.040Z,99412.11
2018-03-28T16:22:14.655Z,99403.95
2018-03-28T16:24:42.319Z,99408.70
2018-03-28T16:27:09.927Z,99410.16
2018-03-28T16:29:37.511Z,99412.69
2018-03-28T16:32:05.133Z,99416.46
2018-03-28T16:34:47.283Z,99416.16
2018-03-28T16:37:14.920Z,99417.92
2018-03-28T16:39:42.508Z,99422.05
2018-03-28T16:42:10.112Z,99419.53
2018-03-28T16:44:37.695Z,99421.80
2018-03-28T16:47:05.409Z,99428.70
2018-03-28T16:49:32.987Z,99433.50
2018-03-28T16:52:00.672Z,99434.17
2018-03-28T16:54:28.303Z,99431.77
2018-03-28T16:56:55.916Z,99429.05
2018-03-28T16:59:23.534Z,99435.85
2018-03-28T17:01:51.185Z,99437.03
2018-03-28T17:04:18.783Z,99432.53
2018-03-28T17:06:46.375Z,99443.36
2018-03-28T17:09:13.975Z,99439.34
2018-03-28T17:11:41.639Z,99441.49
2018-03-28T17:14:09.248Z,99443.82
2018-03-28T17:16:36.891Z,99449.77
2018-03-28T17:19:04.613Z,99451.67
2018-03-28T17:21:32.256Z,99449.98
2018-03-28T17:23:59.852Z,99451.98
2018-03-28T17:26:27.451Z,99451.22
2018-03-28T17:28:55.043Z,99459.08
2018-03-28T17:31:22.677Z,99460.08
2018-03-28T17:33:50.290Z,99465.69
2018-03-28T17:36:18.172Z,99467.59
2018-03-28T17:38:45.810Z,99464.04
2018-03-28T17:41:13.419Z,99463.11
2018-03-28T17:43:41.090Z,99462.51
2018-03-28T17:46:08.678Z,99469.45
2018-03-28T17:48:36.271Z,99470.81
2018-03-28T17:51:03.883Z,99464.57
2018-03-28T17:53:31.596Z,99473.72
2018-03-28T17:55:59.253Z,99476.50
2018-03-28T17:58:26.978Z,99480.66
2018-03-28T18:00:54.675Z,99486.95
2018-03-28T18:03:22.373Z,99494.39
2018-03-28T18:05:50.032Z,99497.56
2018-03-28T18:08:17.677Z,99500.05
2018-03-28T18:10:45.400Z,99505.02
2018-03-28T18:13:13.075Z,99503.41
2018-03-28T18:15:40.748Z,99509.66
2018-03-28T18:18:08.351Z,99515.42
2018-03-28T18:20:36.002Z,99515.11
2018-03-28T18:23:03.619Z,99516.83
2018-03-28T18:25:32.158Z,99526.94
2018-03-28T18:27:59.754Z,99518.88
2018-03-28T18:30:27.347Z,99514.05
2018-03-28T18:32:54.978Z,99521.03
2018-03-28T18:35:22.583Z,99518.30
2018-03-28T18:37:50.187Z,99517.54
2018-03-28T18:40:17.843Z,99518.56
2018-03-28T18:42:45.506Z,99516.34
2018-03-28T18:45:13.083Z,99510.66
2018-03-28T18:47:40.740Z,99524.92
2018-03-28T18:50:08.361Z,99523.09
2018-03-28T18:52:36.006Z,99524.39
2018-03-28T18:55:03.567Z,99527.41
2018-03-28T18:57:31.221Z,99529.70
2018-03-28T18:59:58.807Z,99529.95
2018-03-28T19:02:26.431Z,99528.09
2018-03-28T19:04:54.020Z,99532.87
2018-03-28T19:07:21.632Z,99526.25
2018-03-28T19:22:44.291Z,99524.66
2018-03-28T19:25:11.891Z,99534.88
2018-03-28T19:27:39.490Z,99532.17
2018-03-28T19:30:07.095Z,99533.45
2018-03-28T19:32:34.696Z,99537.01
2018-03-28T19:35:02.275Z,99535.63
2018-03-28T19:37:29.903Z,99532.39
2018-03-28T19:39:57.486Z,99537.18
2018-03-28T19:42:25.071Z,99529.20
2018-03-28T19:44:52.704Z,99529.62
2018-03-28T19:47:20.339Z,99525.85
2018-03-28T19:49:47.943Z,99514.16
2018-03-28T19:52:15.545Z,99516.70
2018-03-28T19:54:43.171Z,99510.11
2018-03-28T19:57:10.779Z,99510.63
2018-03-28T19:59:38.362Z,99511.97
2018-03-28T20:02:06.027Z,99497.66
2018-03-28T20:04:33.610Z,99504.95
2018-03-28T20:07:01.198Z,99501.53
2018-03-28T20:09:28.782Z,99503.45
2018-03-28T20:11:56.362Z,99507.34
2018-03-28T20:14:23.967Z,99509.38
2018-03-28T20:16:51.546Z,99513.59
2018-03-28T20:19:19.230Z,99508.27
2018-03-28T20:21:46.819Z,99513.22
2018-03-28T20:24:14.414Z,99495.72
2018-03-28T20:26:44.075Z,99499.64
2018-03-28T20:29:11.691Z,99490.83
2018-03-28T20:31:39.290Z,99497.64
2018-03-28T20:34:06.882Z,99493.83
2018-03-28T20:36:34.476Z,99496.53
2018-03-28T20:39:02.070Z,99500.91
2018-03-28T20:41:29.775Z,99499.51
2018-03-28T20:43:57.367Z,99500.30
2018-03-28T20:46:24.967Z,99494.75
2018-03-28T20:48:53.106Z,99493.12
2018-03-28T20:51:20.732Z,99493.18
2018-03-28T20:53:48.362Z,99486.53
2018-03-28T20:56:16.001Z,99491.05
2018-03-28T20:58:43.652Z,99498.65
2018-03-28T21:01:11.236Z,99504.78
2018-03-28T21:03:38.826Z,99509.53
2018-03-28T21:06:06.434Z,99506.46
2018-03-28T21:08:34.017Z,99512.57
2018-03-28T21:11:01.633Z,99518.70
2018-03-28T21:13:29.235Z,99521.14
2018-03-28T21:15:56.899Z,99515.89
2018-03-28T21:18:24.491Z,99510.20
2018-03-28T21:20:52.080Z,99504.48
2018-03-28T21:23:19.674Z,99511.53
2018-03-28T21:25:47.263Z,99510.73
2018-03-28T21:28:14.892Z,99505.83
2018-03-28T21:30:42.492Z,99501.61
2018-03-28T21:33:10.088Z,99502.11
2018-03-28T21:35:37.736Z,99498.58
2018-03-28T21:38:05.399Z,99497.27
2018-03-28T21:40:33.067Z,99499.22
2018-03-28T21:43:00.652Z,99500.08
2018-03-28T21:45:28.242Z,99498.31
2018-03-28T21:47:55.842Z,99492.69
2018-03-28T21:50:23.472Z,99493.59
2018-03-28T21:52:51.059Z,99494.39
2018-03-28T21:55:18.651Z,99498.08
2018-03-28T21:57:46.283Z,99503.30
2018-03-28T22:00:13.891Z,99515.00
2018-03-28T22:02:41.493Z,99511.11
2018-03-28T22:05:09.118Z,99510.78
2018-03-28T22:07:36.707Z,99521.70
2018-03-28T22:10:04.351Z,99522.56
2018-03-28T22:12:31.971Z,99525.51
2018-03-28T22:14:59.594Z,99524.19
2018-03-28T22:17:27.225Z,99513.91
2018-03-28T22:19:54.818Z,99516.53
2018-03-28T22:22:22.415Z,99516.91
2018-03-28T22:24:50.001Z,99512.16
2018-03-28T22:27:17.639Z,99510.08
2018-03-28T22:29:45.240Z,99510.85
2018-03-28T22:32:12.824Z,99520.10
2018-03-28T22:34:40.418Z,99518.00
2018-03-28T22:37:08.007Z,99514.44
2018-03-28T22:39:35.635Z,99507.42
2018-03-28T22:42:03.232Z,99505.02
2018-03-28T22:44:30.816Z,99510.70
2018-03-28T22:46:58.446Z,99515.96
2018-03-28T22:49:26.043Z,99513.30
2018-03-28T22:51:53.639Z,99502.88
2018-03-28T22:54:21.238Z,99497.30
2018-03-28T22:56:48.823Z,99486.89
2018-03-28T22:59:16.446Z,99485.09
2018-03-28T23:01:44.040Z,99479.04
2018-03-28T23:04:11.647Z,99473.30
2018-03-28T23:06:39.279Z,99467.63
2018-03-28T23:09:06.902Z,99445.21
2018-03-28T23:11:34.490Z,99450.48
2018-03-28T23:14:02.079Z,99444.86
2018-03-28T23:16:29.714Z,99433.12
2018-03-28T23:18:57.306Z,99440.09
2018-03-28T23:21:24.923Z,99432.25
2018-03-28T23:23:52.535Z,99432.34
2018-03-28T23:26:20.151Z,99432.42
2018-03-28T23:28:47.770Z,99424.60
2018-03-28T23:31:15.362Z,99416.40
2018-03-28T23:33:43.011Z,99410.43
2018-03-28T23:36:10.601Z,99414.35
2018-03-28T23:38:38.219Z,99415.23
2018-03-28T23:41:05.854Z,99419.58
2018-03-28T23:43:33.471Z,99421.64
2018-03-28T23:46:01.054Z,99414.41
2018-03-28T23:48:28.683Z,99424.94
2018-03-28T23:50:56.274Z,99425.49
2018-03-28T23:53:25.467Z,99438.47
2018-03-28T23:55:53.062Z,99445.34
2018-03-28T23:58:20.695Z,99438.95
